sensor_id;sensor_type;location;lat;lon;timestamp;P1;durP1;ratioP1;P2;durP2;ratioP2
2996;SDS011;1508;48.744;9.110;2022-08-19T00:02:09;21.63;;;19.00;;
2996;SDS011;1508;48.744;9.110;2022-08-19T00:04:55;21.40;;;19.10;;
2996;SDS011;1508;48.744;9.110;2022-08-19T00:07:41;22.67;;;20.27;;
2996;SDS011;1508;48.744;9.110;2022-08-19T00:10:27;21.25;;;19.05;;
2996;SDS011;1508;48.744;9.110;2022-08-19T00:13:13;21.13;;;18.77;;
2996;SDS011;1508;48.744;9.110;2022-08-19T00:15:59;23.70;;;20.13;;
2996;SDS011;1508;48.744;9.110;2022-08-19T00:18:47;22.15;;;18.70;;
2996;SDS011;1508;48.744;9.110;2022-08-19T00:21:33;22.17;;;19.15;;
2996;SDS011;1508;48.744;9.110;2022-08-19T00:24:19;21.90;;;18.97;;
2996;SDS011;1508;48.744;9.110;2022-08-19T00:27:05;25.75;;;19.58;;
2996;SDS011;1508;48.744;9.110;2022-08-19T00:29:51;21.70;;;18.70;;
2996;SDS011;1508;48.744;9.110;2022-08-19T00:32:37;22.70;;;19.00;;
2996;SDS011;1508;48.744;9.110;2022-08-19T00:35:24;22.85;;;18.67;;
2996;SDS011;1508;48.744;9.110;2022-08-19T00:38:10;22.77;;;18.90;;
2996;SDS011;1508;48.744;9.110;2022-08-19T00:40:56;22.17;;;19.58;;
2996;SDS011;1508;48.744;9.110;2022-08-19T00:43:42;21.90;;;19.20;;
2996;SDS011;1508;48.744;9.110;2022-08-19T00:46:28;21.73;;;19.30;;
2996;SDS011;1508;48.744;9.110;2022-08-19T00:49:15;21.27;;;18.98;;
2996;SDS011;1508;48.744;9.110;2022-08-19T00:52:15;22.92;;;19.02;;
2996;SDS011;1508;48.744;9.110;2022-08-19T00:55:07;25.65;;;19.77;;
2996;SDS011;1508;48.744;9.110;2022-08-19T00:57:55;22.02;;;19.73;;
2996;SDS011;1508;48.744;9.110;2022-08-19T01:00:43;22.33;;;18.30;;
2996;SDS011;1508;48.744;9.110;2022-08-19T01:03:30;24.48;;;20.83;;
2996;SDS011;1508;48.744;9.110;2022-08-19T01:06:16;23.52;;;20.20;;
2996;SDS011;1508;48.744;9.110;2022-08-19T01:09:03;25.30;;;20.98;;
2996;SDS011;1508;48.744;9.110;2022-08-19T01:11:50;22.75;;;19.20;;
2996;SDS011;1508;48.744;9.110;2022-08-19T01:14:37;23.38;;;20.30;;
2996;SDS011;1508;48.744;9.110;2022-08-19T01:17:25;24.65;;;21.25;;
2996;SDS011;1508;48.744;9.110;2022-08-19T01:20:12;25.60;;;20.90;;
2996;SDS011;1508;48.744;9.110;2022-08-19T01:23:02;24.90;;;21.58;;
2996;SDS011;1508;48.744;9.110;2022-08-19T01:25:49;26.00;;;21.20;;
2996;SDS011;1508;48.744;9.110;2022-08-19T01:28:37;24.25;;;20.52;;
2996;SDS011;1508;48.744;9.110;2022-08-19T01:31:24;26.65;;;21.60;;
2996;SDS011;1508;48.744;9.110;2022-08-19T01:34:11;27.17;;;23.00;;
2996;SDS011;1508;48.744;9.110;2022-08-19T01:36:57;24.88;;;21.10;;
2996;SDS011;1508;48.744;9.110;2022-08-19T01:39:43;25.95;;;20.67;;
2996;SDS011;1508;48.744;9.110;2022-08-19T01:42:29;25.02;;;22.33;;
2996;SDS011;1508;48.744;9.110;2022-08-19T01:45:15;27.60;;;21.70;;
2996;SDS011;1508;48.744;9.110;2022-08-19T01:48:02;27.90;;;22.50;;
2996;SDS011;1508;48.744;9.110;2022-08-19T01:50:48;24.77;;;21.00;;
2996;SDS011;1508;48.744;9.110;2022-08-19T01:53:35;24.88;;;21.95;;
2996;SDS011;1508;48.744;9.110;2022-08-19T01:56:21;25.52;;;21.80;;
2996;SDS011;1508;48.744;9.110;2022-08-19T01:59:08;26.30;;;22.08;;
2996;SDS011;1508;48.744;9.110;2022-08-19T02:01:57;26.05;;;21.42;;
2996;SDS011;1508;48.744;9.110;2022-08-19T02:04:43;25.75;;;20.83;;
2996;SDS011;1508;48.744;9.110;2022-08-19T02:07:28;27.02;;;22.05;;
2996;SDS011;1508;48.744;9.110;2022-08-19T02:10:16;25.13;;;19.90;;
2996;SDS011;1508;48.744;9.110;2022-08-19T02:13:03;25.92;;;22.65;;
2996;SDS011;1508;48.744;9.110;2022-08-19T02:15:49;27.30;;;21.98;;
2996;SDS011;1508;48.744;9.110;2022-08-19T02:18:35;27.88;;;23.50;;
2996;SDS011;1508;48.744;9.110;2022-08-19T02:21:22;28.85;;;24.00;;
2996;SDS011;1508;48.744;9.110;2022-08-19T02:24:09;29.15;;;22.92;;
2996;SDS011;1508;48.744;9.110;2022-08-19T02:26:55;26.05;;;22.42;;
2996;SDS011;1508;48.744;9.110;2022-08-19T02:29:41;30.58;;;24.13;;
2996;SDS011;1508;48.744;9.110;2022-08-19T02:32:27;30.17;;;24.08;;
2996;SDS011;1508;48.744;9.110;2022-08-19T02:35:13;25.95;;;22.33;;
2996;SDS011;1508;48.744;9.110;2022-08-19T02:37:59;31.70;;;24.27;;
2996;SDS011;1508;48.744;9.110;2022-08-19T02:40:58;31.08;;;26.00;;
2996;SDS011;1508;48.744;9.110;2022-08-19T02:43:49;30.58;;;25.17;;
2996;SDS011;1508;48.744;9.110;2022-08-19T02:46:34;30.27;;;25.27;;
2996;SDS011;1508;48.744;9.110;2022-08-19T02:49:20;31.92;;;26.67;;
2996;SDS011;1508;48.744;9.110;2022-08-19T02:52:06;29.55;;;23.23;;
2996;SDS011;1508;48.744;9.110;2022-08-19T02:54:52;29.70;;;25.65;;
2996;SDS011;1508;48.744;9.110;2022-08-19T02:57:38;30.77;;;26.88;;
2996;SDS011;1508;48.744;9.110;2022-08-19T03:00:24;32.05;;;25.60;;
2996;SDS011;1508;48.744;9.110;2022-08-19T03:03:10;31.30;;;25.67;;
2996;SDS011;1508;48.744;9.110;2022-08-19T03:06:03;30.17;;;25.58;;
2996;SDS011;1508;48.744;9.110;2022-08-19T03:08:53;32.60;;;27.50;;
2996;SDS011;1508;48.744;9.110;2022-08-19T03:11:40;33.00;;;27.83;;
2996;SDS011;1508;48.744;9.110;2022-08-19T03:14:26;31.98;;;26.67;;
2996;SDS011;1508;48.744;9.110;2022-08-19T03:17:12;34.25;;;26.65;;
2996;SDS011;1508;48.744;9.110;2022-08-19T03:19:58;30.58;;;25.70;;
2996;SDS011;1508;48.744;9.110;2022-08-19T03:22:43;32.53;;;28.97;;
2996;SDS011;1508;48.744;9.110;2022-08-19T03:25:29;32.40;;;27.70;;
2996;SDS011;1508;48.744;9.110;2022-08-19T03:28:15;33.15;;;27.58;;
2996;SDS011;1508;48.744;9.110;2022-08-19T03:31:06;31.20;;;26.75;;
2996;SDS011;1508;48.744;9.110;2022-08-19T03:33:53;36.13;;;28.73;;
2996;SDS011;1508;48.744;9.110;2022-08-19T03:36:39;35.08;;;29.30;;
2996;SDS011;1508;48.744;9.110;2022-08-19T03:39:26;33.07;;;28.50;;
2996;SDS011;1508;48.744;9.110;2022-08-19T03:42:12;35.75;;;28.08;;
2996;SDS011;1508;48.744;9.110;2022-08-19T03:44:58;31.02;;;27.35;;
2996;SDS011;1508;48.744;9.110;2022-08-19T03:47:44;32.60;;;27.63;;
2996;SDS011;1508;48.744;9.110;2022-08-19T03:50:30;35.30;;;29.08;;
2996;SDS011;1508;48.744;9.110;2022-08-19T03:53:15;34.92;;;28.90;;
2996;SDS011;1508;48.744;9.110;2022-08-19T03:56:01;34.38;;;28.33;;
2996;SDS011;1508;48.744;9.110;2022-08-19T03:58:47;32.08;;;27.27;;
2996;SDS011;1508;48.744;9.110;2022-08-19T04:01:34;34.97;;;30.02;;
2996;SDS011;1508;48.744;9.110;2022-08-19T04:04:20;35.10;;;30.33;;
2996;SDS011;1508;48.744;9.110;2022-08-19T04:07:06;36.30;;;29.47;;
2996;SDS011;1508;48.744;9.110;2022-08-19T04:09:52;35.80;;;29.88;;
2996;SDS011;1508;48.744;9.110;2022-08-19T04:12:38;38.45;;;32.50;;
2996;SDS011;1508;48.744;9.110;2022-08-19T04:15:23;39.33;;;32.22;;
2996;SDS011;1508;48.744;9.110;2022-08-19T04:18:09;37.05;;;27.88;;
2996;SDS011;1508;48.744;9.110;2022-08-19T04:20:56;37.40;;;30.02;;
2996;SDS011;1508;48.744;9.110;2022-08-19T04:23:41;40.10;;;30.23;;
2996;SDS011;1508;48.744;9.110;2022-08-19T04:26:28;36.47;;;29.13;;
2996;SDS011;1508;48.744;9.110;2022-08-19T04:29:17;39.53;;;31.98;;
2996;SDS011;1508;48.744;9.110;2022-08-19T04:32:05;37.92;;;31.02;;
2996;SDS011;1508;48.744;9.110;2022-08-19T04:34:51;42.05;;;34.28;;
2996;SDS011;1508;48.744;9.110;2022-08-19T04:37:37;43.03;;;32.88;;
2996;SDS011;1508;48.744;9.110;2022-08-19T04:40:23;35.33;;;29.77;;
2996;SDS011;1508;48.744;9.110;2022-08-19T04:43:09;39.78;;;31.38;;
2996;SDS011;1508;48.744;9.110;2022-08-19T04:45:55;39.22;;;30.85;;
2996;SDS011;1508;48.744;9.110;2022-08-19T04:48:41;36.97;;;30.70;;
2996;SDS011;1508;48.744;9.110;2022-08-19T04:51:27;40.22;;;33.30;;
2996;SDS011;1508;48.744;9.110;2022-08-19T04:54:13;39.17;;;31.58;;
2996;SDS011;1508;48.744;9.110;2022-08-19T04:57:00;39.47;;;31.20;;
2996;SDS011;1508;48.744;9.110;2022-08-19T04:59:45;38.90;;;31.48;;
2996;SDS011;1508;48.744;9.110;2022-08-19T05:02:31;36.80;;;32.08;;
2996;SDS011;1508;48.744;9.110;2022-08-19T05:05:17;38.25;;;32.92;;
2996;SDS011;1508;48.744;9.110;2022-08-19T05:08:04;39.87;;;32.73;;
2996;SDS011;1508;48.744;9.110;2022-08-19T05:10:50;38.40;;;31.63;;
2996;SDS011;1508;48.744;9.110;2022-08-19T05:13:36;36.60;;;32.33;;
2996;SDS011;1508;48.744;9.110;2022-08-19T05:16:24;36.83;;;32.15;;
2996;SDS011;1508;48.744;9.110;2022-08-19T05:19:10;37.55;;;31.10;;
2996;SDS011;1508;48.744;9.110;2022-08-19T05:21:56;38.28;;;32.40;;
2996;SDS011;1508;48.744;9.110;2022-08-19T05:24:42;40.53;;;33.35;;
2996;SDS011;1508;48.744;9.110;2022-08-19T05:27:28;39.95;;;31.85;;
2996;SDS011;1508;48.744;9.110;2022-08-19T05:30:15;38.78;;;32.88;;
2996;SDS011;1508;48.744;9.110;2022-08-19T05:33:01;37.93;;;31.63;;
2996;SDS011;1508;48.744;9.110;2022-08-19T05:35:47;36.50;;;31.60;;
2996;SDS011;1508;48.744;9.110;2022-08-19T05:38:34;38.40;;;31.92;;
2996;SDS011;1508;48.744;9.110;2022-08-19T05:41:20;39.53;;;31.20;;
2996;SDS011;1508;48.744;9.110;2022-08-19T05:44:07;38.53;;;32.28;;
2996;SDS011;1508;48.744;9.110;2022-08-19T05:46:53;35.45;;;30.65;;
2996;SDS011;1508;48.744;9.110;2022-08-19T05:49:39;38.95;;;31.80;;
2996;SDS011;1508;48.744;9.110;2022-08-19T05:52:24;36.63;;;30.75;;
2996;SDS011;1508;48.744;9.110;2022-08-19T05:55:10;37.55;;;31.30;;
2996;SDS011;1508;48.744;9.110;2022-08-19T05:57:56;39.45;;;32.42;;
2996;SDS011;1508;48.744;9.110;2022-08-19T06:00:43;40.13;;;30.73;;
2996;SDS011;1508;48.744;9.110;2022-08-19T06:03:29;37.40;;;30.63;;
2996;SDS011;1508;48.744;9.110;2022-08-19T06:06:17;36.63;;;30.48;;
2996;SDS011;1508;48.744;9.110;2022-08-19T06:09:04;37.72;;;31.58;;
2996;SDS011;1508;48.744;9.110;2022-08-19T06:11:53;38.65;;;31.20;;
2996;SDS011;1508;48.744;9.110;2022-08-19T06:14:40;38.80;;;31.00;;
2996;SDS011;1508;48.744;9.110;2022-08-19T06:17:26;39.05;;;32.97;;
2996;SDS011;1508;48.744;9.110;2022-08-19T06:20:12;37.22;;;29.98;;
2996;SDS011;1508;48.744;9.110;2022-08-19T06:22:59;35.65;;;30.35;;
2996;SDS011;1508;48.744;9.110;2022-08-19T06:25:45;39.30;;;31.45;;
2996;SDS011;1508;48.744;9.110;2022-08-19T06:28:31;40.90;;;31.87;;
2996;SDS011;1508;48.744;9.110;2022-08-19T06:31:18;37.88;;;31.90;;
2996;SDS011;1508;48.744;9.110;2022-08-19T06:34:08;36.13;;;30.67;;
2996;SDS011;1508;48.744;9.110;2022-08-19T06:36:55;41.10;;;31.88;;
2996;SDS011;1508;48.744;9.110;2022-08-19T06:39:42;37.10;;;32.00;;
2996;SDS011;1508;48.744;9.110;2022-08-19T06:42:29;35.80;;;29.50;;
2996;SDS011;1508;48.744;9.110;2022-08-19T06:45:15;39.72;;;32.33;;
2996;SDS011;1508;48.744;9.110;2022-08-19T06:48:00;38.92;;;32.15;;
2996;SDS011;1508;48.744;9.110;2022-08-19T06:50:46;36.55;;;30.67;;
2996;SDS011;1508;48.744;9.110;2022-08-19T06:53:33;38.88;;;31.95;;
2996;SDS011;1508;48.744;9.110;2022-08-19T06:56:19;36.85;;;31.38;;
2996;SDS011;1508;48.744;9.110;2022-08-19T06:59:16;33.50;;;28.67;;
2996;SDS011;1508;48.744;9.110;2022-08-19T07:02:04;35.78;;;30.90;;
2996;SDS011;1508;48.744;9.110;2022-08-19T07:04:52;35.85;;;31.50;;
2996;SDS011;1508;48.744;9.110;2022-08-19T07:07:38;34.63;;;30.00;;
2996;SDS011;1508;48.744;9.110;2022-08-19T07:10:24;37.47;;;30.93;;
2996;SDS011;1508;48.744;9.110;2022-08-19T07:13:09;37.00;;;31.03;;
2996;SDS011;1508;48.744;9.110;2022-08-19T07:15:55;35.70;;;30.60;;
2996;SDS011;1508;48.744;9.110;2022-08-19T07:18:41;36.13;;;31.57;;
2996;SDS011;1508;48.744;9.110;2022-08-19T07:21:27;37.90;;;31.77;;
2996;SDS011;1508;48.744;9.110;2022-08-19T07:24:14;36.47;;;30.65;;
2996;SDS011;1508;48.744;9.110;2022-08-19T07:27:02;35.88;;;31.95;;
2996;SDS011;1508;48.744;9.110;2022-08-19T07:29:49;36.30;;;31.30;;
2996;SDS011;1508;48.744;9.110;2022-08-19T07:32:36;36.20;;;32.10;;
2996;SDS011;1508;48.744;9.110;2022-08-19T07:35:22;36.85;;;28.92;;
2996;SDS011;1508;48.744;9.110;2022-08-19T07:38:08;36.00;;;30.02;;
2996;SDS011;1508;48.744;9.110;2022-08-19T07:40:54;35.83;;;29.63;;
2996;SDS011;1508;48.744;9.110;2022-08-19T07:43:40;34.28;;;29.33;;
2996;SDS011;1508;48.744;9.110;2022-08-19T07:46:26;34.05;;;29.05;;
2996;SDS011;1508;48.744;9.110;2022-08-19T07:49:12;34.42;;;28.50;;
2996;SDS011;1508;48.744;9.110;2022-08-19T07:51:59;35.22;;;29.13;;
2996;SDS011;1508;48.744;9.110;2022-08-19T07:54:48;30.48;;;27.17;;
2996;SDS011;1508;48.744;9.110;2022-08-19T07:57:34;35.50;;;29.33;;
2996;SDS011;1508;48.744;9.110;2022-08-19T08:00:20;37.95;;;29.80;;
2996;SDS011;1508;48.744;9.110;2022-08-19T08:03:06;31.42;;;27.50;;
2996;SDS011;1508;48.744;9.110;2022-08-19T08:05:52;32.53;;;26.92;;
2996;SDS011;1508;48.744;9.110;2022-08-19T08:08:38;31.05;;;27.67;;
2996;SDS011;1508;48.744;9.110;2022-08-19T08:11:24;32.70;;;27.27;;
2996;SDS011;1508;48.744;9.110;2022-08-19T08:14:09;30.23;;;25.17;;
2996;SDS011;1508;48.744;9.110;2022-08-19T08:16:56;32.15;;;28.67;;
2996;SDS011;1508;48.744;9.110;2022-08-19T08:19:43;33.47;;;26.77;;
2996;SDS011;1508;48.744;9.110;2022-08-19T08:22:29;35.63;;;27.40;;
2996;SDS011;1508;48.744;9.110;2022-08-19T08:25:18;30.50;;;26.83;;
2996;SDS011;1508;48.744;9.110;2022-08-19T08:28:05;33.45;;;28.75;;
2996;SDS011;1508;48.744;9.110;2022-08-19T08:30:51;28.63;;;25.42;;
2996;SDS011;1508;48.744;9.110;2022-08-19T08:33:37;34.97;;;28.67;;
2996;SDS011;1508;48.744;9.110;2022-08-19T08:36:22;31.60;;;25.75;;
2996;SDS011;1508;48.744;9.110;2022-08-19T08:39:09;35.70;;;26.40;;
2996;SDS011;1508;48.744;9.110;2022-08-19T08:41:58;41.92;;;25.40;;
2996;SDS011;1508;48.744;9.110;2022-08-19T08:45:03;35.15;;;27.30;;
2996;SDS011;1508;48.744;9.110;2022-08-19T08:47:56;34.03;;;26.25;;
2996;SDS011;1508;48.744;9.110;2022-08-19T08:50:47;34.42;;;28.02;;
2996;SDS011;1508;48.744;9.110;2022-08-19T08:53:34;33.05;;;26.73;;
2996;SDS011;1508;48.744;9.110;2022-08-19T08:56:20;32.17;;;27.10;;
2996;SDS011;1508;48.744;9.110;2022-08-19T08:59:07;30.97;;;27.40;;
2996;SDS011;1508;48.744;9.110;2022-08-19T09:02:01;28.08;;;25.02;;
2996;SDS011;1508;48.744;9.110;2022-08-19T09:04:47;34.13;;;27.25;;
2996;SDS011;1508;48.744;9.110;2022-08-19T09:10:47;30.00;;;26.77;;
2996;SDS011;1508;48.744;9.110;2022-08-19T09:16:46;32.35;;;26.65;;
2996;SDS011;1508;48.744;9.110;2022-08-19T09:19:32;28.20;;;25.30;;
2996;SDS011;1508;48.744;9.110;2022-08-19T09:22:20;31.08;;;27.67;;
2996;SDS011;1508;48.744;9.110;2022-08-19T09:25:08;32.88;;;26.73;;
2996;SDS011;1508;48.744;9.110;2022-08-19T09:27:55;29.98;;;25.52;;
2996;SDS011;1508;48.744;9.110;2022-08-19T09:30:41;26.40;;;23.60;;
2996;SDS011;1508;48.744;9.110;2022-08-19T09:33:27;29.08;;;24.08;;
2996;SDS011;1508;48.744;9.110;2022-08-19T09:36:14;27.70;;;24.70;;
2996;SDS011;1508;48.744;9.110;2022-08-19T09:39:03;26.07;;;23.27;;
2996;SDS011;1508;48.744;9.110;2022-08-19T09:41:49;31.17;;;25.73;;
2996;SDS011;1508;48.744;9.110;2022-08-19T09:44:35;27.92;;;24.15;;
2996;SDS011;1508;48.744;9.110;2022-08-19T09:47:21;27.50;;;24.38;;
2996;SDS011;1508;48.744;9.110;2022-08-19T09:50:08;28.60;;;25.50;;
2996;SDS011;1508;48.744;9.110;2022-08-19T09:52:56;27.30;;;23.88;;
2996;SDS011;1508;48.744;9.110;2022-08-19T09:55:42;26.98;;;23.88;;
2996;SDS011;1508;48.744;9.110;2022-08-19T09:58:28;25.65;;;23.05;;
2996;SDS011;1508;48.744;9.110;2022-08-19T10:01:16;27.10;;;24.00;;
2996;SDS011;1508;48.744;9.110;2022-08-19T10:04:06;24.23;;;21.48;;
2996;SDS011;1508;48.744;9.110;2022-08-19T10:06:55;25.55;;;22.83;;
2996;SDS011;1508;48.744;9.110;2022-08-19T10:09:41;23.88;;;21.33;;
2996;SDS011;1508;48.744;9.110;2022-08-19T10:12:27;24.33;;;21.55;;
2996;SDS011;1508;48.744;9.110;2022-08-19T10:15:13;22.42;;;20.13;;
2996;SDS011;1508;48.744;9.110;2022-08-19T10:17:59;23.48;;;21.08;;
2996;SDS011;1508;48.744;9.110;2022-08-19T10:20:45;21.15;;;17.80;;
2996;SDS011;1508;48.744;9.110;2022-08-19T10:23:32;24.50;;;20.00;;
2996;SDS011;1508;48.744;9.110;2022-08-19T10:26:20;22.95;;;19.63;;
2996;SDS011;1508;48.744;9.110;2022-08-19T10:29:07;23.83;;;20.27;;
2996;SDS011;1508;48.744;9.110;2022-08-19T10:31:53;24.20;;;18.53;;
2996;SDS011;1508;48.744;9.110;2022-08-19T10:34:39;22.67;;;19.43;;
2996;SDS011;1508;48.744;9.110;2022-08-19T10:37:25;21.80;;;17.80;;
2996;SDS011;1508;48.744;9.110;2022-08-19T10:40:11;20.75;;;18.35;;
2996;SDS011;1508;48.744;9.110;2022-08-19T10:42:57;20.45;;;18.17;;
2996;SDS011;1508;48.744;9.110;2022-08-19T10:45:43;20.33;;;18.15;;
2996;SDS011;1508;48.744;9.110;2022-08-19T10:48:33;19.73;;;17.38;;
2996;SDS011;1508;48.744;9.110;2022-08-19T10:51:21;22.60;;;17.40;;
2996;SDS011;1508;48.744;9.110;2022-08-19T10:54:07;19.80;;;15.47;;
2996;SDS011;1508;48.744;9.110;2022-08-19T10:56:53;16.50;;;14.80;;
2996;SDS011;1508;48.744;9.110;2022-08-19T10:59:39;18.00;;;16.10;;
2996;SDS011;1508;48.744;9.110;2022-08-19T11:02:25;20.77;;;16.70;;
2996;SDS011;1508;48.744;9.110;2022-08-19T11:05:11;16.15;;;14.50;;
2996;SDS011;1508;48.744;9.110;2022-08-19T11:07:57;17.27;;;15.23;;
2996;SDS011;1508;48.744;9.110;2022-08-19T11:10:43;16.27;;;14.55;;
2996;SDS011;1508;48.744;9.110;2022-08-19T11:13:30;18.58;;;14.68;;
2996;SDS011;1508;48.744;9.110;2022-08-19T11:16:18;15.73;;;14.15;;
2996;SDS011;1508;48.744;9.110;2022-08-19T11:19:06;17.23;;;15.50;;
2996;SDS011;1508;48.744;9.110;2022-08-19T11:21:53;18.30;;;14.02;;
2996;SDS011;1508;48.744;9.110;2022-08-19T11:24:39;17.77;;;15.00;;
2996;SDS011;1508;48.744;9.110;2022-08-19T11:27:25;16.00;;;14.38;;
2996;SDS011;1508;48.744;9.110;2022-08-19T11:30:11;17.55;;;14.13;;
2996;SDS011;1508;48.744;9.110;2022-08-19T11:32:58;16.80;;;14.40;;
2996;SDS011;1508;48.744;9.110;2022-08-19T11:35:44;17.25;;;14.77;;
2996;SDS011;1508;48.744;9.110;2022-08-19T11:38:30;20.45;;;14.70;;
2996;SDS011;1508;48.744;9.110;2022-08-19T11:41:16;16.25;;;14.65;;
2996;SDS011;1508;48.744;9.110;2022-08-19T11:44:04;16.35;;;14.30;;
2996;SDS011;1508;48.744;9.110;2022-08-19T11:46:50;14.68;;;13.15;;
2996;SDS011;1508;48.744;9.110;2022-08-19T11:49:36;14.95;;;13.35;;
2996;SDS011;1508;48.744;9.110;2022-08-19T11:52:22;15.18;;;13.23;;
2996;SDS011;1508;48.744;9.110;2022-08-19T11:55:08;15.40;;;13.05;;
2996;SDS011;1508;48.744;9.110;2022-08-19T11:57:54;16.33;;;13.43;;
2996;SDS011;1508;48.744;9.110;2022-08-19T12:00:40;14.30;;;12.80;;
2996;SDS011;1508;48.744;9.110;2022-08-19T12:03:27;17.80;;;14.52;;
2996;SDS011;1508;48.744;9.110;2022-08-19T12:06:15;13.93;;;12.52;;
2996;SDS011;1508;48.744;9.110;2022-08-19T12:09:04;14.40;;;12.40;;
2996;SDS011;1508;48.744;9.110;2022-08-19T12:11:52;14.30;;;11.77;;
2996;SDS011;1508;48.744;9.110;2022-08-19T12:14:37;13.27;;;11.98;;
2996;SDS011;1508;48.744;9.110;2022-08-19T12:17:24;13.87;;;11.37;;
2996;SDS011;1508;48.744;9.110;2022-08-19T12:20:13;15.47;;;11.93;;
2996;SDS011;1508;48.744;9.110;2022-08-19T12:22:59;12.50;;;11.20;;
2996;SDS011;1508;48.744;9.110;2022-08-19T12:25:46;15.18;;;11.85;;
2996;SDS011;1508;48.744;9.110;2022-08-19T12:28:33;12.80;;;11.50;;
2996;SDS011;1508;48.744;9.110;2022-08-19T12:31:19;12.38;;;11.13;;
2996;SDS011;1508;48.744;9.110;2022-08-19T12:34:05;12.52;;;10.80;;
2996;SDS011;1508;48.744;9.110;2022-08-19T12:36:51;11.35;;;10.15;;
2996;SDS011;1508;48.744;9.110;2022-08-19T12:39:38;10.73;;;9.63;;
2996;SDS011;1508;48.744;9.110;2022-08-19T12:42:26;11.00;;;9.90;;
2996;SDS011;1508;48.744;9.110;2022-08-19T12:45:12;11.53;;;10.10;;
2996;SDS011;1508;48.744;9.110;2022-08-19T12:47:58;12.82;;;9.82;;
2996;SDS011;1508;48.744;9.110;2022-08-19T12:50:45;12.38;;;10.05;;
2996;SDS011;1508;48.744;9.110;2022-08-19T12:53:30;12.47;;;10.30;;
2996;SDS011;1508;48.744;9.110;2022-08-19T12:56:16;11.27;;;10.17;;
2996;SDS011;1508;48.744;9.110;2022-08-19T12:59:03;14.00;;;9.60;;
2996;SDS011;1508;48.744;9.110;2022-08-19T13:01:49;13.15;;;9.43;;
2996;SDS011;1508;48.744;9.110;2022-08-19T13:04:35;12.52;;;10.25;;
2996;SDS011;1508;48.744;9.110;2022-08-19T13:07:21;10.63;;;9.63;;
2996;SDS011;1508;48.744;9.110;2022-08-19T13:10:07;10.77;;;9.77;;
2996;SDS011;1508;48.744;9.110;2022-08-19T13:12:55;10.75;;;9.73;;
2996;SDS011;1508;48.744;9.110;2022-08-19T13:15:42;11.75;;;10.55;;
2996;SDS011;1508;48.744;9.110;2022-08-19T13:18:28;13.27;;;10.82;;
2996;SDS011;1508;48.744;9.110;2022-08-19T13:21:14;12.15;;;10.73;;
2996;SDS011;1508;48.744;9.110;2022-08-19T13:24:00;15.65;;;13.20;;
2996;SDS011;1508;48.744;9.110;2022-08-19T13:26:46;17.25;;;15.23;;
2996;SDS011;1508;48.744;9.110;2022-08-19T13:29:32;20.37;;;18.27;;
2996;SDS011;1508;48.744;9.110;2022-08-19T13:32:18;21.60;;;19.30;;
2996;SDS011;1508;48.744;9.110;2022-08-19T13:35:04;23.23;;;20.73;;
2996;SDS011;1508;48.744;9.110;2022-08-19T13:37:50;24.58;;;21.55;;
2996;SDS011;1508;48.744;9.110;2022-08-19T13:40:36;26.60;;;23.70;;
2996;SDS011;1508;48.744;9.110;2022-08-19T13:43:23;29.30;;;25.10;;
2996;SDS011;1508;48.744;9.110;2022-08-19T13:46:11;31.85;;;25.95;;
2996;SDS011;1508;48.744;9.110;2022-08-19T13:48:57;31.58;;;25.17;;
2996;SDS011;1508;48.744;9.110;2022-08-19T13:51:43;29.25;;;26.20;;
2996;SDS011;1508;48.744;9.110;2022-08-19T13:54:29;37.90;;;29.60;;
2996;SDS011;1508;48.744;9.110;2022-08-19T13:57:15;33.17;;;28.55;;
2996;SDS011;1508;48.744;9.110;2022-08-19T14:00:03;29.73;;;26.08;;
2996;SDS011;1508;48.744;9.110;2022-08-19T14:02:50;33.33;;;27.55;;
2996;SDS011;1508;48.744;9.110;2022-08-19T14:05:37;29.92;;;25.05;;
2996;SDS011;1508;48.744;9.110;2022-08-19T14:08:23;30.38;;;27.00;;
2996;SDS011;1508;48.744;9.110;2022-08-19T14:11:09;28.50;;;24.90;;
2996;SDS011;1508;48.744;9.110;2022-08-19T14:13:55;27.63;;;24.70;;
2996;SDS011;1508;48.744;9.110;2022-08-19T14:16:41;28.53;;;24.47;;
2996;SDS011;1508;48.744;9.110;2022-08-19T14:19:27;28.58;;;25.58;;
2996;SDS011;1508;48.744;9.110;2022-08-19T14:22:13;28.50;;;25.40;;
2996;SDS011;1508;48.744;9.110;2022-08-19T14:24:59;27.33;;;24.40;;
2996;SDS011;1508;48.744;9.110;2022-08-19T14:27:45;24.17;;;21.60;;
2996;SDS011;1508;48.744;9.110;2022-08-19T14:30:32;25.23;;;22.63;;
2996;SDS011;1508;48.744;9.110;2022-08-19T14:33:19;26.90;;;24.00;;
2996;SDS011;1508;48.744;9.110;2022-08-19T14:36:05;27.40;;;24.58;;
2996;SDS011;1508;48.744;9.110;2022-08-19T14:38:51;25.13;;;22.42;;
2996;SDS011;1508;48.744;9.110;2022-08-19T14:41:39;23.85;;;21.48;;
2996;SDS011;1508;48.744;9.110;2022-08-19T14:44:26;25.55;;;22.85;;
2996;SDS011;1508;48.744;9.110;2022-08-19T14:47:11;24.20;;;21.60;;
2996;SDS011;1508;48.744;9.110;2022-08-19T14:49:57;24.90;;;21.88;;
2996;SDS011;1508;48.744;9.110;2022-08-19T14:52:43;22.10;;;19.70;;
2996;SDS011;1508;48.744;9.110;2022-08-19T14:55:33;20.80;;;18.60;;
2996;SDS011;1508;48.744;9.110;2022-08-19T14:58:19;22.88;;;20.23;;
2996;SDS011;1508;48.744;9.110;2022-08-19T15:01:05;21.50;;;19.30;;
2996;SDS011;1508;48.744;9.110;2022-08-19T15:03:51;21.88;;;19.58;;
2996;SDS011;1508;48.744;9.110;2022-08-19T15:06:38;21.10;;;19.00;;
2996;SDS011;1508;48.744;9.110;2022-08-19T15:09:24;20.95;;;18.15;;
2996;SDS011;1508;48.744;9.110;2022-08-19T15:12:10;21.13;;;18.70;;
2996;SDS011;1508;48.744;9.110;2022-08-19T15:14:56;20.63;;;18.55;;
2996;SDS011;1508;48.744;9.110;2022-08-19T15:17:42;19.20;;;17.20;;
2996;SDS011;1508;48.744;9.110;2022-08-19T15:20:29;20.10;;;16.80;;
2996;SDS011;1508;48.744;9.110;2022-08-19T15:23:16;18.40;;;16.67;;
2996;SDS011;1508;48.744;9.110;2022-08-19T15:26:03;17.88;;;16.08;;
2996;SDS011;1508;48.744;9.110;2022-08-19T15:28:49;17.17;;;15.57;;
2996;SDS011;1508;48.744;9.110;2022-08-19T15:31:35;16.58;;;14.90;;
2996;SDS011;1508;48.744;9.110;2022-08-19T15:34:21;16.98;;;15.18;;
2996;SDS011;1508;48.744;9.110;2022-08-19T15:37:08;16.17;;;14.55;;
2996;SDS011;1508;48.744;9.110;2022-08-19T15:39:54;17.70;;;15.18;;
2996;SDS011;1508;48.744;9.110;2022-08-19T15:42:39;16.43;;;14.77;;
2996;SDS011;1508;48.744;9.110;2022-08-19T15:45:25;15.65;;;14.10;;
2996;SDS011;1508;48.744;9.110;2022-08-19T15:48:12;15.63;;;14.13;;
2996;SDS011;1508;48.744;9.110;2022-08-19T15:50:58;17.08;;;15.48;;
2996;SDS011;1508;48.744;9.110;2022-08-19T15:53:43;18.95;;;16.92;;
2996;SDS011;1508;48.744;9.110;2022-08-19T15:56:30;18.25;;;16.42;;
2996;SDS011;1508;48.744;9.110;2022-08-19T15:59:16;17.90;;;16.20;;
2996;SDS011;1508;48.744;9.110;2022-08-19T16:02:02;17.85;;;16.13;;
2996;SDS011;1508;48.744;9.110;2022-08-19T16:04:48;17.85;;;15.80;;
2996;SDS011;1508;48.744;9.110;2022-08-19T16:07:36;17.48;;;15.68;;
2996;SDS011;1508;48.744;9.110;2022-08-19T16:10:22;16.05;;;14.45;;
2996;SDS011;1508;48.744;9.110;2022-08-19T16:13:08;19.05;;;17.10;;
2996;SDS011;1508;48.744;9.110;2022-08-19T16:15:54;17.23;;;14.60;;
2996;SDS011;1508;48.744;9.110;2022-08-19T16:18:40;9.57;;;8.68;;
2996;SDS011;1508;48.744;9.110;2022-08-19T16:21:26;9.80;;;8.80;;
2996;SDS011;1508;48.744;9.110;2022-08-19T16:24:15;8.70;;;7.90;;
2996;SDS011;1508;48.744;9.110;2022-08-19T16:27:02;8.00;;;7.20;;
2996;SDS011;1508;48.744;9.110;2022-08-19T16:29:48;7.67;;;6.97;;
2996;SDS011;1508;48.744;9.110;2022-08-19T16:32:34;7.05;;;6.45;;
2996;SDS011;1508;48.744;9.110;2022-08-19T16:35:20;15.30;;;13.75;;
2996;SDS011;1508;48.744;9.110;2022-08-19T16:38:06;15.57;;;14.07;;
2996;SDS011;1508;48.744;9.110;2022-08-19T16:40:52;17.60;;;15.90;;
2996;SDS011;1508;48.744;9.110;2022-08-19T16:43:38;16.27;;;14.57;;
2996;SDS011;1508;48.744;9.110;2022-08-19T16:46:24;18.27;;;16.38;;
2996;SDS011;1508;48.744;9.110;2022-08-19T16:49:10;21.67;;;17.83;;
2996;SDS011;1508;48.744;9.110;2022-08-19T16:51:56;20.05;;;18.17;;